Alpine, Tennessee
Current Conditions -  °F | °C
As of 6:35 AM on Saturday 01 Nov 2014 (Local Time) from KSRB Reporting Station
Overcast Overcast  
Wind Chill: 27°   Ceiling: 1600
Heat Index: 34°   Visibility: 10mi
Dew Point: 30°   Wind: 8mph
Humidity: 87%   Direction: 360°N
Pressure: 30.12"   Gusts: NA
Location:  36.39°N, 85.22°W
Report Text: KSRB 011135Z AUTO 36007KT 320V030 10SM OVC016 01/M01 A3012 RMK
Loading
Personal Weather Stations






























Interactive Weather Map
Tropical Storm Tracking
New forecast layout! Learn more

10-Day Weather Forecast

Advertisements
Track Severe Weather on mobile